Ustick, Illinois
Current Conditions -  °F | °C
As of 8:35 AM on Sunday 23 Nov 2014 (Local Time) from KSQI Reporting Station
Broken Clouds Broken Clouds  
Wind Chill:   Ceiling: 3100
Heat Index:   Visibility: 5mi
Dew Point:   Wind: 7mph
Humidity: 87%   Direction: 180°S
Pressure: 29.67"   Gusts: NA
Location:  41.8285°N, 89.9656°W
Report Text: KSQI 231435Z 18006KT 5SM FEW019 SCT026 BKN031 09/07 A2967 RMK AO1 P0001
Loading
Personal Weather Stations






























Interactive Weather Map New forecast layout! Learn more

10-Day Weather Forecast

Advertisements
Track Severe Weather on mobile